Shoei Maru No.55 — JL6485 — position and weather

sailwx.info

Track history (hours):
 
Tides and Currents Weather Stations Pressure Air Temp Water Temp Dewpoint Dewpoint Depression Visibility Wind Speed Wind Dir Waves Ship Positions

Shoei Maru No.55

Last reported at 2018-Jan-18 12:08 UTC. Time now 2018-Jan-18 16:13 UTC.
Position N 33°49' E 134°45'.

Length 72 m; draft 4.5 m.

Type: Cargo ship. MMSI: 431500583.

Date/timePositionNaut miles runAvg speedWind from/ knotsBaromVisibWave heightAir tempDewpointWater temp
2018-Jan-18 12:08N 33°49' E 134°45'212.0
2018-Jan-18 11:59N 33°51' E 134°46'612.2
2018-Jan-18 11:29N 33°56' E 134°49'611.9
2018-Jan-18 11:00N 34°02' E 134°52'611.9
2018-Jan-18 10:30N 34°07' E 134°55'611.8
2018-Jan-18 10:00N 34°12' E 134°58'612.3
2018-Jan-18 09:31N 34°18' E 134°59'611.1
2018-Jan-18 09:00N 34°23' E 135°02'612.8
2018-Jan-18 08:30N 34°27' E 135°08'612.4
2018-Jan-18 08:00N 34°32' E 135°13'611.9
2018-Jan-18 07:30N 34°36' E 135°18'611.7
2018-Jan-18 07:00N 34°41' E 135°23'1 2.0
2018-Jan-18 06:25N 34°42' E 135°24'0 0.0
2018-Jan-18 05:58N 34°42' E 135°24'0 0.0
2018-Jan-18 05:28N 34°42' E 135°24'0 0.0
2018-Jan-18 04:58N 34°42' E 135°24'0 0.0
2018-Jan-18 04:28N 34°42' E 135°24'0 0.0
2018-Jan-18 03:58N 34°42' E 135°24'0 0.0
2018-Jan-18 03:28N 34°42' E 135°24'0 0.0
2018-Jan-18 02:58N 34°42' E 135°24'0 0.0
2018-Jan-18 02:28N 34°42' E 135°24'0 0.0
2018-Jan-18 01:58N 34°42' E 135°24'0 0.0
2018-Jan-18 01:28N 34°42' E 135°24'0 0.0
2018-Jan-18 00:58N 34°42' E 135°24'0 0.0
2018-Jan-18 00:00N 34°42' E 135°24'0 0.0
2018-Jan-17 23:57N 34°42' E 135°24'  
2018-Jan-12 05:23N 33°50' E 134°45'812.0
2018-Jan-12 04:43N 33°56' E 134°51'311.8
2018-Jan-12 04:30N 33°59' E 134°52'611.7
2018-Jan-12 04:01N 34°04' E 134°55'611.7
2018-Jan-12 03:31N 34°09' E 134°59'611.9
2018-Jan-12 03:01N 34°14' E 135°02'612.7
2018-Jan-12 02:30N 34°20' E 135°06'611.9
2018-Jan-12 02:00N 34°25' E 135°10'611.3
2018-Jan-12 01:30N 34°28' E 135°15'5 9.6
2018-Jan-12 01:01N 34°28' E 135°21'0 0.7
2018-Jan-12 00:26N 34°28' E 135°21'0 0.0
2018-Jan-11 23:59N 34°28' E 135°21'0 0.0
2018-Jan-11 23:29N 34°28' E 135°21'0 0.0
2018-Jan-11 22:59N 34°28' E 135°21'0 0.0
2018-Jan-11 22:29N 34°28' E 135°21'0 0.0
2018-Jan-11 21:56N 34°28' E 135°21'0 0.0
2018-Jan-11 21:29N 34°28' E 135°21'0 0.0
2018-Jan-11 20:56N 34°28' E 135°21'0 0.0
2018-Jan-11 20:29N 34°28' E 135°21'0 0.8
2018-Jan-11 20:00N 34°28' E 135°21'4 8.4
2018-Jan-11 19:30N 34°28' E 135°16'611.2
2018-Jan-11 19:01N 34°26' E 135°10'611.9
2018-Jan-11 18:30N 34°21' E 135°06'612.1
2018-Jan-11 18:00N 34°15' E 135°03'611.2
2018-Jan-11 17:30N 34°10' E 135°02'511.0
2018-Jan-11 17:00N 34°04' E 135°02'611.0
2018-Jan-11 16:30N 33°59' E 135°02'710.6
2018-Jan-11 15:52N 33°52' E 135°03'410.3
2018-Jan-11 15:27N 33°49' E 135°06'83 8.3
2018-Jan-11 05:29N 34°07' E 136°44'3210.1
2018-Jan-11 02:19N 34°28' E 137°13'4 9.4
2018-Jan-11 01:54N 34°29' E 137°18'24 9.8
2018-Jan-10 23:28N 34°31' E 137°47'5 9.8
2018-Jan-10 22:57N 34°31' E 137°53'4 8.9
2018-Jan-10 22:28N 34°31' E 137°58'10 8.3
2018-Jan-10 21:19N 34°31' E 138°09'2 7.7
2018-Jan-10 21:00N 34°31' E 138°12'4 8.2
2018-Jan-10 20:28N 34°32' E 138°18'5 8.3
2018-Jan-10 19:52N 34°33' E 138°24'4 8.8
2018-Jan-10 19:25N 34°33' E 138°28'4 7.9
2018-Jan-10 18:57N 34°33' E 138°33'4 7.3
2018-Jan-10 18:24N 34°33' E 138°38'3 7.6
2018-Jan-10 17:58N 34°34' E 138°42'4 8.2
2018-Jan-10 17:29N 34°34' E 138°47'4 7.5
2018-Jan-10 16:54N 34°35' E 138°52'3 7.8
2018-Jan-10 16:30N 34°36' E 138°55'5 9.3
2018-Jan-10 15:58N 34°39' E 139°00'510.2
2018-Jan-10 15:30N 34°42' E 139°04'5 9.8
2018-Jan-10 14:59N 34°46' E 139°08'510.3
2018-Jan-10 14:29N 34°50' E 139°12'510.4
2018-Jan-10 13:59N 34°53' E 139°17'5 9.8
2018-Jan-10 13:29N 34°56' E 139°22'4 8.8
2018-Jan-10 13:00N 34°58' E 139°26'5 9.4
2018-Jan-10 12:28N 35°01' E 139°31'4 9.8
2018-Jan-10 12:01N 35°04' E 139°36'510.2
2018-Jan-10 11:31N 35°06' E 139°41'5 9.9
2018-Jan-10 11:01N 35°10' E 139°45'5 9.7
2018-Jan-10 10:30N 35°15' E 139°46'511.0
2018-Jan-10 10:00N 35°20' E 139°43'510.9
2018-Jan-10 09:30N 35°25' E 139°43'4 8.7
2018-Jan-10 09:00N 35°30' E 139°43'0 0.3
2018-Jan-10 08:28N 35°30' E 139°43'0 0.0
2018-Jan-10 07:55N 35°30' E 139°43'0 0.0
2018-Jan-10 07:28N 35°30' E 139°43'0 0.0
2018-Jan-10 06:58N 35°30' E 139°43'0 0.0
2018-Jan-10 06:28N 35°30' E 139°43'0 0.0
2018-Jan-10 05:58N 35°30' E 139°43'0 0.0
2018-Jan-10 05:28N 35°30' E 139°43'0 0.0
2018-Jan-10 04:58N 35°30' E 139°43'0 0.2
2018-Jan-10 04:31N 35°30' E 139°43'4 8.2
2018-Jan-10 04:00N 35°30' E 139°48'2 4.3
2018-Jan-10 03:25N 35°31' E 139°51'0 0.1
2018-Jan-10 02:58N 35°31' E 139°51'0 0.0
2018-Jan-10 02:28N 35°31' E 139°51'0 0.1
2018-Jan-10 01:58N 35°31' E 139°51'0 0.1
2018-Jan-10 01:28N 35°31' E 139°51'0 0.0
2018-Jan-10 00:58N 35°31' E 139°51'0 0.0
2018-Jan-10 00:25N 35°31' E 139°51'0 0.1
2018-Jan-09 23:58N 35°31' E 139°51'0 0.0
2018-Jan-09 23:25N 35°31' E 139°51'0 0.1
2018-Jan-09 22:52N 35°31' E 139°51'0 0.0
2018-Jan-09 22:28N 35°31' E 139°51'0 0.1
2018-Jan-09 21:58N 35°31' E 139°51'0 0.1
2018-Jan-09 21:28N 35°31' E 139°51'0 0.0
2018-Jan-09 20:55N 35°31' E 139°51'1 1.3
2018-Jan-09 20:30N 35°31' E 139°51'5 9.5
2018-Jan-09 20:00N 35°35' E 139°46'0 0.0
2018-Jan-09 19:29N 35°35' E 139°46'0 0.0
2018-Jan-09 18:56N 35°35' E 139°46'0 0.0
2018-Jan-09 18:29N 35°35' E 139°46'0 0.0
2018-Jan-09 17:59N 35°35' E 139°46'0 0.0
2018-Jan-09 17:26N 35°35' E 139°46'0 0.0
2018-Jan-09 16:56N 35°35' E 139°46'0 0.0
2018-Jan-09 16:29N 35°35' E 139°46'0 0.0
2018-Jan-09 15:59N 35°35' E 139°46'0 0.0
2018-Jan-09 15:29N 35°35' E 139°46'0 0.0
2018-Jan-09 14:59N 35°35' E 139°46'0 0.0
2018-Jan-09 14:23N 35°35' E 139°46'0 0.0
2018-Jan-09 13:32N 35°35' E 139°46'0 0.1
2018-Jan-09 13:29N 35°35' E 139°46'0 0.0
2018-Jan-09 12:56N 35°35' E 139°46'0 0.0
2018-Jan-09 12:14N 35°35' E 139°46'0 0.0
2018-Jan-09 11:59N 35°35' E 139°46'0 0.0
2018-Jan-09 11:08N 35°35' E 139°46'0 0.0
2018-Jan-09 10:59N 35°35' E 139°46'0 0.0
2018-Jan-09 10:26N 35°35' E 139°46'0 0.0
2018-Jan-09 09:53N 35°35' E 139°46'0 0.0
2018-Jan-09 09:29N 35°35' E 139°46'0 0.0
2018-Jan-09 07:23N 35°35' E 139°46'0 0.0
2018-Jan-09 06:56N 35°35' E 139°46'0 0.0
2018-Jan-09 06:20N 35°35' E 139°46'0 0.0
2018-Jan-09 05:56N 35°35' E 139°46'0 0.0
2018-Jan-09 05:26N 35°35' E 139°46'0 0.0
2018-Jan-09 04:56N 35°35' E 139°46'0 0.0
2018-Jan-09 04:20N 35°35' E 139°46'0 1.1
2018-Jan-09 04:00N 35°35' E 139°47'4 8.2
2018-Jan-09 03:30N 35°31' E 139°49'611.2
2018-Jan-09 03:00N 35°26' E 139°47'511.0
2018-Jan-09 02:31N 35°21' E 139°45'5 9.8
2018-Jan-09 02:00N 35°16' E 139°46'510.7
2018-Jan-09 01:30N 35°11' E 139°46'611.0
2018-Jan-09 01:00N 35°06' E 139°43'611.4
2018-Jan-09 00:30N 35°02' E 139°38'611.3
2018-Jan-09 00:00N 34°58' E 139°33'1612.8
2018-Jan-08 22:43N 34°48' E 139°17'312.2
2018-Jan-08 22:27N 34°45' E 139°14'712.6
2018-Jan-08 21:54N 34°41' E 139°08'811.6
2018-Jan-08 21:14N 34°37' E 139°00'210.6
2018-Jan-08 21:00N 34°36' E 138°57'611.3
2018-Jan-08 20:30N 34°34' E 138°51'911.0
2018-Jan-08 19:42N 34°33' E 138°40'210.8
2018-Jan-08 19:29N 34°32' E 138°38'1410.5
2018-Jan-08 18:09N 34°31' E 138°21'310.8
2018-Jan-08 17:54N 34°31' E 138°17'  
Track history (hours):
 
Tides and Currents Weather Stations Pressure Air Temp Water Temp Dewpoint Dewpoint Depression Visibility Wind Speed Wind Dir Waves Ship Positions

Shoei Maru No.55

Last reported at 2018-Jan-18 12:08 UTC. Time now 2018-Jan-18 16:13 UTC.
Position N 33°49' E 134°45'.

Length 72 m; draft 4.5 m.

Type: Cargo ship. MMSI: 431500583.

Date/timePositionNaut miles runAvg speedWind from/ knotsBaromVisibWave heightAir tempDewpointWater temp
2018-Jan-18 12:08N 33°49' E 134°45'212.0
2018-Jan-18 11:59N 33°51' E 134°46'612.2
2018-Jan-18 11:29N 33°56' E 134°49'611.9
2018-Jan-18 11:00N 34°02' E 134°52'611.9
2018-Jan-18 10:30N 34°07' E 134°55'611.8
2018-Jan-18 10:00N 34°12' E 134°58'612.3
2018-Jan-18 09:31N 34°18' E 134°59'611.1
2018-Jan-18 09:00N 34°23' E 135°02'612.8
2018-Jan-18 08:30N 34°27' E 135°08'612.4
2018-Jan-18 08:00N 34°32' E 135°13'611.9
2018-Jan-18 07:30N 34°36' E 135°18'611.7
2018-Jan-18 07:00N 34°41' E 135°23'1 2.0
2018-Jan-18 06:25N 34°42' E 135°24'0 0.0
2018-Jan-18 05:58N 34°42' E 135°24'0 0.0
2018-Jan-18 05:28N 34°42' E 135°24'0 0.0
2018-Jan-18 04:58N 34°42' E 135°24'0 0.0
2018-Jan-18 04:28N 34°42' E 135°24'0 0.0
2018-Jan-18 03:58N 34°42' E 135°24'0 0.0
2018-Jan-18 03:28N 34°42' E 135°24'0 0.0
2018-Jan-18 02:58N 34°42' E 135°24'0 0.0
2018-Jan-18 02:28N 34°42' E 135°24'0 0.0
2018-Jan-18 01:58N 34°42' E 135°24'0 0.0
2018-Jan-18 01:28N 34°42' E 135°24'0 0.0
2018-Jan-18 00:58N 34°42' E 135°24'0 0.0
2018-Jan-18 00:00N 34°42' E 135°24'0 0.0
2018-Jan-17 23:57N 34°42' E 135°24'  
2018-Jan-12 05:23N 33°50' E 134°45'812.0
2018-Jan-12 04:43N 33°56' E 134°51'311.8
2018-Jan-12 04:30N 33°59' E 134°52'611.7
2018-Jan-12 04:01N 34°04' E 134°55'611.7
2018-Jan-12 03:31N 34°09' E 134°59'611.9
2018-Jan-12 03:01N 34°14' E 135°02'612.7
2018-Jan-12 02:30N 34°20' E 135°06'611.9
2018-Jan-12 02:00N 34°25' E 135°10'611.3
2018-Jan-12 01:30N 34°28' E 135°15'5 9.6
2018-Jan-12 01:01N 34°28' E 135°21'0 0.7
2018-Jan-12 00:26N 34°28' E 135°21'0 0.0
2018-Jan-11 23:59N 34°28' E 135°21'0 0.0
2018-Jan-11 23:29N 34°28' E 135°21'0 0.0
2018-Jan-11 22:59N 34°28' E 135°21'0 0.0
2018-Jan-11 22:29N 34°28' E 135°21'0 0.0
2018-Jan-11 21:56N 34°28' E 135°21'0 0.0
2018-Jan-11 21:29N 34°28' E 135°21'0 0.0
2018-Jan-11 20:56N 34°28' E 135°21'0 0.0
2018-Jan-11 20:29N 34°28' E 135°21'0 0.8
2018-Jan-11 20:00N 34°28' E 135°21'4 8.4
2018-Jan-11 19:30N 34°28' E 135°16'611.2
2018-Jan-11 19:01N 34°26' E 135°10'611.9
2018-Jan-11 18:30N 34°21' E 135°06'612.1
2018-Jan-11 18:00N 34°15' E 135°03'611.2
2018-Jan-11 17:30N 34°10' E 135°02'511.0
2018-Jan-11 17:00N 34°04' E 135°02'611.0
2018-Jan-11 16:30N 33°59' E 135°02'710.6
2018-Jan-11 15:52N 33°52' E 135°03'410.3
2018-Jan-11 15:27N 33°49' E 135°06'83 8.3
2018-Jan-11 05:29N 34°07' E 136°44'3210.1
2018-Jan-11 02:19N 34°28' E 137°13'4 9.4
2018-Jan-11 01:54N 34°29' E 137°18'24 9.8
2018-Jan-10 23:28N 34°31' E 137°47'5 9.8
2018-Jan-10 22:57N 34°31' E 137°53'4 8.9
2018-Jan-10 22:28N 34°31' E 137°58'10 8.3
2018-Jan-10 21:19N 34°31' E 138°09'2 7.7
2018-Jan-10 21:00N 34°31' E 138°12'4 8.2
2018-Jan-10 20:28N 34°32' E 138°18'5 8.3
2018-Jan-10 19:52N 34°33' E 138°24'4 8.8
2018-Jan-10 19:25N 34°33' E 138°28'4 7.9
2018-Jan-10 18:57N 34°33' E 138°33'4 7.3
2018-Jan-10 18:24N 34°33' E 138°38'3 7.6
2018-Jan-10 17:58N 34°34' E 138°42'4 8.2
2018-Jan-10 17:29N 34°34' E 138°47'4 7.5
2018-Jan-10 16:54N 34°35' E 138°52'3 7.8
2018-Jan-10 16:30N 34°36' E 138°55'5 9.3
2018-Jan-10 15:58N 34°39' E 139°00'510.2
2018-Jan-10 15:30N 34°42' E 139°04'5 9.8
2018-Jan-10 14:59N 34°46' E 139°08'510.3
2018-Jan-10 14:29N 34°50' E 139°12'510.4
2018-Jan-10 13:59N 34°53' E 139°17'5 9.8
2018-Jan-10 13:29N 34°56' E 139°22'4 8.8
2018-Jan-10 13:00N 34°58' E 139°26'5 9.4
2018-Jan-10 12:28N 35°01' E 139°31'4 9.8
2018-Jan-10 12:01N 35°04' E 139°36'510.2
2018-Jan-10 11:31N 35°06' E 139°41'5 9.9
2018-Jan-10 11:01N 35°10' E 139°45'5 9.7
2018-Jan-10 10:30N 35°15' E 139°46'511.0
2018-Jan-10 10:00N 35°20' E 139°43'510.9
2018-Jan-10 09:30N 35°25' E 139°43'4 8.7
2018-Jan-10 09:00N 35°30' E 139°43'0 0.3
2018-Jan-10 08:28N 35°30' E 139°43'0 0.0
2018-Jan-10 07:55N 35°30' E 139°43'0 0.0
2018-Jan-10 07:28N 35°30' E 139°43'0 0.0
2018-Jan-10 06:58N 35°30' E 139°43'0 0.0
2018-Jan-10 06:28N 35°30' E 139°43'0 0.0
2018-Jan-10 05:58N 35°30' E 139°43'0 0.0
2018-Jan-10 05:28N 35°30' E 139°43'0 0.0
2018-Jan-10 04:58N 35°30' E 139°43'0 0.2
2018-Jan-10 04:31N 35°30' E 139°43'4 8.2
2018-Jan-10 04:00N 35°30' E 139°48'2 4.3
2018-Jan-10 03:25N 35°31' E 139°51'0 0.1
2018-Jan-10 02:58N 35°31' E 139°51'0 0.0
2018-Jan-10 02:28N 35°31' E 139°51'0 0.1
2018-Jan-10 01:58N 35°31' E 139°51'0 0.1
2018-Jan-10 01:28N 35°31' E 139°51'0 0.0
2018-Jan-10 00:58N 35°31' E 139°51'0 0.0
2018-Jan-10 00:25N 35°31' E 139°51'0 0.1
2018-Jan-09 23:58N 35°31' E 139°51'0 0.0
2018-Jan-09 23:25N 35°31' E 139°51'0 0.1
2018-Jan-09 22:52N 35°31' E 139°51'0 0.0
2018-Jan-09 22:28N 35°31' E 139°51'0 0.1
2018-Jan-09 21:58N 35°31' E 139°51'0 0.1
2018-Jan-09 21:28N 35°31' E 139°51'0 0.0
2018-Jan-09 20:55N 35°31' E 139°51'1 1.3
2018-Jan-09 20:30N 35°31' E 139°51'5 9.5
2018-Jan-09 20:00N 35°35' E 139°46'0 0.0
2018-Jan-09 19:29N 35°35' E 139°46'0 0.0
2018-Jan-09 18:56N 35°35' E 139°46'0 0.0
2018-Jan-09 18:29N 35°35' E 139°46'0 0.0
2018-Jan-09 17:59N 35°35' E 139°46'0 0.0
2018-Jan-09 17:26N 35°35' E 139°46'0 0.0
2018-Jan-09 16:56N 35°35' E 139°46'0 0.0
2018-Jan-09 16:29N 35°35' E 139°46'0 0.0
2018-Jan-09 15:59N 35°35' E 139°46'0 0.0
2018-Jan-09 15:29N 35°35' E 139°46'0 0.0
2018-Jan-09 14:59N 35°35' E 139°46'0 0.0
2018-Jan-09 14:23N 35°35' E 139°46'0 0.0
2018-Jan-09 13:32N 35°35' E 139°46'0 0.1
2018-Jan-09 13:29N 35°35' E 139°46'0 0.0
2018-Jan-09 12:56N 35°35' E 139°46'0 0.0
2018-Jan-09 12:14N 35°35' E 139°46'0 0.0
2018-Jan-09 11:59N 35°35' E 139°46'0 0.0
2018-Jan-09 11:08N 35°35' E 139°46'0 0.0
2018-Jan-09 10:59N 35°35' E 139°46'0 0.0
2018-Jan-09 10:26N 35°35' E 139°46'0 0.0
2018-Jan-09 09:53N 35°35' E 139°46'0 0.0
2018-Jan-09 09:29N 35°35' E 139°46'0 0.0
2018-Jan-09 07:23N 35°35' E 139°46'0 0.0
2018-Jan-09 06:56N 35°35' E 139°46'0 0.0
2018-Jan-09 06:20N 35°35' E 139°46'0 0.0
2018-Jan-09 05:56N 35°35' E 139°46'0 0.0
2018-Jan-09 05:26N 35°35' E 139°46'0 0.0
2018-Jan-09 04:56N 35°35' E 139°46'0 0.0
2018-Jan-09 04:20N 35°35' E 139°46'0 1.1
2018-Jan-09 04:00N 35°35' E 139°47'4 8.2
2018-Jan-09 03:30N 35°31' E 139°49'611.2
2018-Jan-09 03:00N 35°26' E 139°47'511.0
2018-Jan-09 02:31N 35°21' E 139°45'5 9.8
2018-Jan-09 02:00N 35°16' E 139°46'510.7
2018-Jan-09 01:30N 35°11' E 139°46'611.0
2018-Jan-09 01:00N 35°06' E 139°43'611.4
2018-Jan-09 00:30N 35°02' E 139°38'611.3
2018-Jan-09 00:00N 34°58' E 139°33'1612.8
2018-Jan-08 22:43N 34°48' E 139°17'312.2
2018-Jan-08 22:27N 34°45' E 139°14'712.6
2018-Jan-08 21:54N 34°41' E 139°08'811.6
2018-Jan-08 21:14N 34°37' E 139°00'210.6
2018-Jan-08 21:00N 34°36' E 138°57'611.3
2018-Jan-08 20:30N 34°34' E 138°51'911.0
2018-Jan-08 19:42N 34°33' E 138°40'210.8
2018-Jan-08 19:29N 34°32' E 138°38'1410.5
2018-Jan-08 18:09N 34°31' E 138°21'310.8
2018-Jan-08 17:54N 34°31' E 138°17'  

Dump ship's entire track history